createdAt,value
2022-10-08T00:01:24.673Z,3.40
2022-10-08T00:04:28.890Z,3.40
2022-10-08T00:07:32.583Z,2.93
2022-10-08T00:10:36.479Z,3.63
2022-10-08T00:13:43.769Z,3.17
2022-10-08T00:16:47.523Z,3.30
2022-10-08T00:19:51.179Z,2.80
2022-10-08T00:22:54.764Z,3.23
2022-10-08T00:25:58.390Z,4.03
2022-10-08T00:29:06.551Z,3.50
2022-10-08T00:32:11.818Z,3.37
2022-10-08T00:35:15.847Z,3.70
2022-10-08T00:38:19.464Z,2.97
2022-10-08T00:41:27.604Z,3.90
2022-10-08T00:44:55.373Z,3.20
2022-10-08T00:47:59.452Z,3.07
2022-10-08T00:51:03.671Z,3.30
2022-10-08T00:54:07.612Z,3.23
2022-10-08T00:57:12.091Z,3.77
2022-10-08T01:00:22.437Z,3.40
2022-10-08T01:03:26.181Z,3.20
2022-10-08T01:06:33.076Z,3.63
2022-10-08T01:09:43.607Z,3.63
2022-10-08T01:13:01.616Z,3.83
2022-10-08T01:16:26.542Z,4.30
2022-10-08T01:20:22.788Z,3.00
2022-10-08T01:23:51.830Z,3.40
2022-10-08T01:27:04.359Z,3.57
2022-10-08T01:30:15.617Z,3.70
2022-10-08T01:33:26.808Z,3.43
2022-10-08T01:36:38.775Z,3.63
2022-10-08T01:39:46.388Z,3.20
2022-10-08T01:42:54.105Z,3.60
2022-10-08T01:46:09.123Z,3.33
2022-10-08T01:49:18.525Z,3.30
2022-10-08T01:52:27.924Z,3.23
2022-10-08T01:55:37.554Z,3.47
2022-10-08T01:58:53.054Z,3.43
2022-10-08T02:02:07.935Z,3.97
2022-10-08T02:05:13.382Z,3.20
2022-10-08T02:08:17.061Z,3.17
2022-10-08T02:11:20.905Z,4.37
2022-10-08T02:14:28.701Z,3.47
2022-10-08T02:17:43.780Z,3.30
2022-10-08T02:20:57.055Z,3.10
2022-10-08T02:24:13.414Z,2.80
2022-10-08T02:27:21.965Z,3.63
2022-10-08T02:30:27.536Z,3.27
2022-10-08T02:33:39.566Z,3.67
2022-10-08T02:36:47.973Z,3.67
2022-10-08T02:39:59.651Z,3.40
2022-10-08T02:43:11.126Z,3.27
2022-10-08T02:46:20.735Z,3.17
2022-10-08T02:49:32.564Z,3.37
2022-10-08T02:52:41.098Z,2.83
2022-10-08T02:55:54.859Z,3.13
2022-10-08T02:58:58.770Z,3.67
2022-10-08T03:02:05.397Z,4.03
2022-10-08T03:05:19.834Z,3.57
2022-10-08T03:08:23.705Z,3.60
2022-10-08T03:11:28.587Z,3.93
2022-10-08T03:14:37.566Z,3.87
2022-10-08T03:17:47.271Z,3.03
2022-10-08T03:20:56.369Z,3.23
2022-10-08T03:24:00.048Z,3.20
2022-10-08T03:27:03.580Z,3.40
2022-10-08T03:30:08.847Z,3.23
2022-10-08T03:33:12.429Z,2.93
2022-10-08T03:36:17.436Z,3.33
2022-10-08T03:39:21.181Z,3.27
2022-10-08T03:42:24.731Z,3.50
2022-10-08T03:45:28.312Z,3.30
2022-10-08T03:48:32.211Z,3.23
2022-10-08T03:51:37.462Z,3.70
2022-10-08T03:54:40.969Z,3.43
2022-10-08T03:57:44.700Z,2.80
2022-10-08T04:00:59.504Z,3.33
2022-10-08T04:04:03.034Z,2.77
2022-10-08T04:07:08.099Z,3.07
2022-10-08T04:10:11.805Z,2.90
2022-10-08T04:13:17.044Z,3.33
2022-10-08T04:16:21.397Z,3.37
2022-10-08T04:19:25.069Z,3.50
2022-10-08T04:22:30.173Z,3.03
2022-10-08T04:25:33.809Z,2.73
2022-10-08T04:28:38.977Z,2.50
2022-10-08T04:31:42.939Z,2.70
2022-10-08T04:34:46.535Z,2.70
2022-10-08T04:37:51.526Z,3.30
2022-10-08T04:41:04.677Z,3.33
2022-10-08T04:44:08.637Z,2.77
2022-10-08T04:47:12.216Z,3.30
2022-10-08T04:50:15.988Z,3.20
2022-10-08T04:53:20.976Z,3.03
2022-10-08T04:56:27.639Z,3.23
2022-10-08T04:59:32.285Z,3.10
2022-10-08T05:02:37.039Z,2.93
2022-10-08T05:05:41.852Z,2.70
2022-10-08T05:08:47.896Z,3.10
2022-10-08T05:11:51.979Z,2.90
2022-10-08T05:14:55.564Z,2.90
2022-10-08T05:17:59.139Z,3.13
2022-10-08T05:21:08.808Z,2.93
2022-10-08T05:24:13.847Z,2.80
2022-10-08T05:27:17.757Z,3.40
2022-10-08T05:30:22.187Z,3.57
2022-10-08T05:33:27.236Z,3.30
2022-10-08T05:36:33.496Z,3.23
2022-10-08T05:39:39.284Z,3.03
2022-10-08T05:42:42.821Z,3.13
2022-10-08T05:45:52.282Z,3.73
2022-10-08T05:48:57.324Z,3.43
2022-10-08T05:52:00.901Z,3.63
2022-10-08T05:55:07.030Z,4.00
2022-10-08T05:58:10.671Z,4.20
2022-10-08T06:01:17.547Z,3.83
2022-10-08T06:04:21.312Z,3.83
2022-10-08T06:07:24.987Z,4.67
2022-10-08T06:10:32.044Z,4.17
2022-10-08T06:13:35.976Z,4.20
2022-10-08T06:16:40.683Z,3.70
2022-10-08T06:19:44.857Z,4.63
2022-10-08T06:22:49.415Z,4.40
2022-10-08T06:25:54.950Z,4.27
2022-10-08T06:28:59.179Z,5.00
2022-10-08T06:32:02.934Z,4.93
2022-10-08T06:35:07.735Z,4.63
2022-10-08T06:38:11.287Z,4.43
2022-10-08T06:41:16.292Z,5.57
2022-10-08T06:44:20.236Z,3.90
2022-10-08T06:47:24.080Z,4.33
2022-10-08T06:50:27.601Z,4.30
2022-10-08T06:53:31.855Z,4.53
2022-10-08T06:56:37.577Z,5.23
2022-10-08T06:59:42.731Z,5.00
2022-10-08T07:02:46.568Z,5.30
2022-10-08T07:05:50.696Z,5.30
2022-10-08T07:08:55.414Z,5.63
2022-10-08T07:12:00.374Z,5.30
2022-10-08T07:15:04.189Z,5.50
2022-10-08T07:18:11.685Z,5.73
2022-10-08T07:21:17.816Z,5.80
2022-10-08T07:24:21.748Z,6.60
2022-10-08T07:27:26.724Z,6.50
2022-10-08T07:30:32.987Z,5.60
2022-10-08T07:33:36.667Z,5.07
2022-10-08T07:36:41.847Z,5.13
2022-10-08T07:39:45.674Z,4.80
2022-10-08T07:42:51.896Z,4.73
2022-10-08T07:45:55.489Z,4.70
2022-10-08T07:49:01.789Z,4.13
2022-10-08T07:52:05.641Z,4.27
2022-10-08T07:55:09.950Z,4.40
2022-10-08T07:58:15.343Z,4.40
2022-10-08T08:01:22.177Z,4.20
2022-10-08T08:04:27.456Z,4.30
2022-10-08T08:07:31.092Z,3.50
2022-10-08T08:10:35.150Z,3.87
2022-10-08T08:13:42.585Z,3.20
2022-10-08T08:16:46.360Z,3.13
2022-10-08T08:19:50.184Z,3.60
2022-10-08T08:22:53.891Z,2.80
2022-10-08T08:25:57.495Z,3.10
2022-10-08T08:29:06.241Z,3.50
2022-10-08T08:32:09.890Z,3.80
2022-10-08T08:35:13.581Z,3.20
2022-10-08T08:38:17.639Z,3.00
2022-10-08T08:41:53.498Z,3.03
2022-10-08T08:45:03.072Z,3.23
2022-10-08T08:48:16.750Z,2.50
2022-10-08T08:51:20.414Z,2.47
2022-10-08T08:54:24.960Z,2.73
2022-10-08T08:57:38.439Z,2.90
2022-10-08T09:00:51.295Z,2.30
2022-10-08T09:04:00.990Z,2.60
2022-10-08T09:07:13.467Z,2.70
2022-10-08T09:10:24.321Z,2.83
2022-10-08T09:13:35.588Z,2.87
2022-10-08T09:16:41.031Z,2.23
2022-10-08T09:19:45.704Z,2.83
2022-10-08T09:22:51.815Z,2.87
2022-10-08T09:26:03.067Z,2.00
2022-10-08T09:29:07.514Z,1.83
2022-10-08T09:32:20.113Z,2.40
2022-10-08T09:35:25.587Z,2.63
2022-10-08T09:38:36.366Z,1.67
2022-10-08T09:41:39.898Z,1.83
2022-10-08T09:44:46.573Z,1.80
2022-10-08T09:48:23.290Z,1.63
2022-10-08T09:51:27.034Z,2.40
2022-10-08T09:54:36.334Z,1.97
2022-10-08T09:57:48.356Z,1.57
2022-10-08T10:01:07.908Z,1.00
2022-10-08T10:04:24.535Z,0.97
2022-10-08T10:07:40.829Z,1.10
2022-10-08T10:10:48.606Z,1.40
2022-10-08T10:13:52.548Z,1.00
2022-10-08T10:17:03.892Z,1.30
2022-10-08T10:20:21.886Z,1.20
2022-10-08T10:23:32.935Z,1.40
2022-10-08T10:26:43.277Z,1.20
2022-10-08T10:29:57.739Z,1.40
2022-10-08T10:33:11.676Z,0.80
2022-10-08T10:36:21.207Z,0.90
2022-10-08T10:39:45.450Z,1.63
2022-10-08T10:43:01.215Z,1.00
2022-10-08T10:46:28.072Z,1.00
2022-10-08T10:49:38.365Z,0.83
2022-10-08T10:52:58.871Z,0.80
2022-10-08T10:56:12.020Z,1.87
2022-10-08T10:59:45.283Z,1.30
2022-10-08T11:02:58.143Z,1.43
2022-10-08T11:06:30.028Z,1.30
2022-10-08T11:09:49.890Z,1.30
2022-10-08T11:13:06.467Z,1.60
2022-10-08T11:16:31.555Z,1.60
2022-10-08T11:19:53.343Z,1.20
2022-10-08T11:23:09.059Z,1.10
2022-10-08T11:26:25.376Z,1.10
2022-10-08T11:29:43.709Z,1.23
2022-10-08T11:32:53.073Z,0.90
2022-10-08T11:36:14.370Z,0.80
2022-10-08T11:39:27.923Z,0.97
2022-10-08T11:42:47.484Z,1.00
2022-10-08T11:46:22.898Z,0.70
2022-10-08T11:49:55.503Z,0.90
2022-10-08T11:53:18.955Z,1.23
2022-10-08T11:56:22.728Z,0.67
2022-10-08T11:59:37.906Z,0.80
2022-10-08T12:02:46.731Z,1.10
2022-10-08T12:05:53.770Z,1.10
2022-10-08T12:09:00.121Z,0.90
2022-10-08T12:12:14.802Z,0.87
2022-10-08T12:15:57.365Z,1.00
2022-10-08T12:19:01.060Z,1.47
2022-10-08T12:22:13.614Z,0.90
2022-10-08T12:26:11.864Z,1.13
2022-10-08T12:29:29.824Z,1.00
2022-10-08T12:32:58.171Z,1.00
2022-10-08T12:36:15.814Z,0.50
2022-10-08T12:39:35.729Z,0.60
2022-10-08T12:42:42.316Z,0.70
2022-10-08T12:45:58.542Z,1.20
2022-10-08T12:49:17.250Z,0.90
2022-10-08T12:52:21.903Z,0.67
2022-10-08T12:55:26.754Z,0.60
2022-10-08T12:58:34.571Z,0.57
2022-10-08T13:01:38.605Z,0.23
2022-10-08T13:04:47.874Z,0.47
2022-10-08T13:07:51.511Z,0.40
2022-10-08T13:10:56.087Z,0.80
2022-10-08T13:13:59.683Z,0.73
2022-10-08T13:17:05.577Z,0.87
2022-10-08T13:20:18.742Z,1.10
2022-10-08T13:23:35.391Z,1.80
2022-10-08T13:26:44.707Z,1.57
2022-10-08T13:29:48.388Z,1.37
2022-10-08T13:33:02.001Z,1.63
2022-10-08T13:36:07.351Z,1.27
2022-10-08T13:39:22.615Z,1.10
2022-10-08T13:42:31.146Z,1.07
2022-10-08T13:45:37.894Z,1.00
2022-10-08T13:48:44.468Z,0.63
2022-10-08T13:51:50.694Z,0.87
2022-10-08T13:55:04.411Z,0.90
2022-10-08T13:58:08.682Z,1.20
2022-10-08T14:01:12.402Z,0.70
2022-10-08T14:04:17.225Z,1.33
2022-10-08T14:07:28.474Z,1.30
2022-10-08T14:10:32.719Z,1.20
2022-10-08T14:13:36.320Z,1.20
2022-10-08T14:16:39.980Z,1.33
2022-10-08T14:19:43.635Z,2.00
2022-10-08T14:22:50.105Z,1.80
2022-10-08T14:25:54.020Z,2.30
2022-10-08T14:28:57.807Z,1.27
2022-10-08T14:32:01.664Z,1.93
2022-10-08T14:35:06.696Z,1.10
2022-10-08T14:38:12.078Z,1.63
2022-10-08T14:41:16.811Z,1.40
2022-10-08T14:44:22.599Z,1.80
2022-10-08T14:47:26.247Z,1.70
2022-10-08T14:50:29.903Z,3.60
2022-10-08T14:53:35.032Z,1.00
2022-10-08T14:56:39.232Z,1.33
2022-10-08T14:59:42.785Z,1.20
2022-10-08T15:02:46.787Z,0.93
2022-10-08T15:05:51.442Z,1.20
2022-10-08T15:08:56.442Z,1.30
2022-10-08T15:12:00.005Z,0.87
2022-10-08T15:15:04.012Z,1.10
2022-10-08T15:18:07.807Z,1.43
2022-10-08T15:21:12.156Z,1.00
2022-10-08T15:24:17.078Z,1.00
2022-10-08T15:27:21.164Z,1.20
2022-10-08T15:30:25.604Z,1.07
2022-10-08T15:33:29.308Z,1.03
2022-10-08T15:36:36.278Z,1.40
2022-10-08T15:39:41.268Z,0.93
2022-10-08T15:42:45.025Z,1.03
2022-10-08T15:45:49.185Z,0.87
2022-10-08T15:48:55.031Z,1.37
2022-10-08T15:51:59.030Z,1.23
2022-10-08T15:55:04.288Z,1.43
2022-10-08T15:58:07.879Z,0.90
2022-10-08T16:01:15.031Z,1.17
2022-10-08T16:04:18.638Z,1.17
2022-10-08T16:07:22.345Z,1.40
2022-10-08T16:10:27.416Z,1.20
2022-10-08T16:13:31.050Z,1.20
2022-10-08T16:16:34.888Z,0.90
2022-10-08T16:19:38.544Z,1.67
2022-10-08T16:22:42.210Z,1.20
2022-10-08T16:25:47.246Z,1.30
2022-10-08T16:28:55.168Z,1.10
2022-10-08T16:31:58.798Z,1.60
2022-10-08T16:35:02.391Z,1.20
2022-10-08T16:38:05.992Z,1.20
2022-10-08T16:41:17.773Z,1.70
2022-10-08T16:44:22.923Z,1.60
2022-10-08T16:47:26.788Z,1.50
2022-10-08T16:50:30.404Z,2.03
2022-10-08T16:53:33.945Z,1.47
2022-10-08T16:56:41.954Z,1.90
2022-10-08T16:59:45.524Z,1.70
2022-10-08T17:02:49.944Z,2.20
2022-10-08T17:05:53.741Z,1.27
2022-10-08T17:08:59.363Z,1.87
2022-10-08T17:12:04.487Z,3.17
2022-10-08T17:15:09.676Z,2.53
2022-10-08T17:18:13.344Z,2.67
2022-10-08T17:21:17.059Z,2.30
2022-10-08T17:24:20.839Z,2.80
2022-10-08T17:27:25.847Z,6.30
2022-10-08T17:30:29.406Z,3.40
2022-10-08T17:33:35.950Z,2.50
2022-10-08T17:36:44.170Z,1.57
2022-10-08T17:39:47.752Z,1.77
2022-10-08T17:42:52.678Z,1.73
2022-10-08T17:45:56.398Z,1.70
2022-10-08T17:49:00.251Z,1.30
2022-10-08T17:52:03.837Z,1.33
2022-10-08T17:55:08.947Z,1.53
2022-10-08T17:58:14.084Z,1.90
2022-10-08T18:01:20.436Z,1.40
2022-10-08T18:04:24.122Z,1.63
2022-10-08T18:07:27.650Z,1.77
2022-10-08T18:10:31.330Z,1.57
2022-10-08T18:13:37.256Z,2.00
2022-10-08T18:16:44.343Z,2.47
2022-10-08T18:19:51.384Z,2.50
2022-10-08T18:22:55.168Z,1.97
2022-10-08T18:26:09.843Z,1.83
2022-10-08T18:29:16.273Z,2.67
2022-10-08T18:32:19.847Z,1.67
2022-10-08T18:35:24.620Z,2.07
2022-10-08T18:38:28.171Z,1.87
2022-10-08T18:41:35.473Z,2.03
2022-10-08T18:44:40.431Z,2.47
2022-10-08T18:47:44.718Z,2.53
2022-10-08T18:50:48.258Z,2.30
2022-10-08T18:53:53.957Z,1.80
2022-10-08T18:57:00.276Z,2.20
2022-10-08T19:00:06.228Z,2.67
2022-10-08T19:03:09.951Z,3.03
2022-10-08T19:06:13.636Z,3.17
2022-10-08T19:09:17.760Z,3.53
2022-10-08T19:12:21.356Z,2.97
2022-10-08T19:15:39.908Z,4.30
2022-10-08T19:18:44.840Z,3.13
2022-10-08T19:21:49.955Z,2.83
2022-10-08T19:24:53.739Z,3.10
2022-10-08T19:27:57.969Z,3.23
2022-10-08T19:31:03.172Z,3.70
2022-10-08T19:34:09.013Z,3.07
2022-10-08T19:37:12.635Z,2.67
2022-10-08T19:40:16.347Z,2.47
2022-10-08T19:43:19.979Z,2.43
2022-10-08T19:46:26.221Z,2.67
2022-10-08T19:49:30.014Z,2.00
2022-10-08T19:52:33.605Z,2.37
2022-10-08T19:55:38.419Z,2.77
2022-10-08T19:58:48.461Z,3.53
2022-10-08T20:01:53.970Z,2.90
2022-10-08T20:04:57.575Z,2.10
2022-10-08T20:08:01.162Z,2.63
2022-10-08T20:11:05.303Z,2.40
2022-10-08T20:14:09.532Z,2.53
2022-10-08T20:17:14.509Z,2.37
2022-10-08T20:20:32.204Z,2.80
2022-10-08T20:23:38.580Z,3.03
2022-10-08T20:26:44.112Z,3.97
2022-10-08T20:29:47.714Z,4.30
2022-10-08T20:32:52.739Z,3.87
2022-10-08T20:35:56.315Z,3.37
2022-10-08T20:39:00.645Z,3.73
2022-10-08T20:42:04.198Z,3.70
2022-10-08T20:45:11.949Z,2.77
2022-10-08T20:48:16.899Z,2.97
2022-10-08T20:51:22.794Z,2.97
2022-10-08T20:54:26.498Z,3.10
2022-10-08T20:57:30.093Z,3.10
2022-10-08T21:00:34.294Z,3.40
2022-10-08T21:03:43.986Z,2.37
2022-10-08T21:06:50.217Z,3.33
2022-10-08T21:09:53.702Z,3.00
2022-10-08T21:12:57.327Z,3.03
2022-10-08T21:16:03.190Z,2.70
2022-10-08T21:19:12.643Z,3.03
2022-10-08T21:22:16.134Z,3.00
2022-10-08T21:25:20.417Z,3.40
2022-10-08T21:28:24.031Z,2.80
2022-10-08T21:31:30.624Z,2.80
2022-10-08T21:34:35.744Z,2.50
2022-10-08T21:37:39.349Z,2.50
2022-10-08T21:40:43.108Z,2.57
2022-10-08T21:43:49.166Z,3.30
2022-10-08T21:46:52.850Z,2.80
2022-10-08T21:49:57.759Z,2.80
2022-10-08T21:53:01.343Z,2.50
2022-10-08T21:56:08.127Z,2.40
2022-10-08T21:59:15.363Z,2.70
2022-10-08T22:02:19.014Z,3.00
2022-10-08T22:05:29.101Z,2.20
2022-10-08T22:08:33.452Z,3.00
2022-10-08T22:11:37.059Z,2.67
2022-10-08T22:14:40.682Z,2.90
2022-10-08T22:17:44.229Z,2.80
2022-10-08T22:20:49.360Z,2.63
2022-10-08T22:23:54.123Z,2.73
2022-10-08T22:26:57.704Z,2.67
2022-10-08T22:30:01.255Z,3.10
2022-10-08T22:33:05.491Z,3.87
2022-10-08T22:36:14.639Z,2.97
2022-10-08T22:39:18.178Z,3.00
2022-10-08T22:42:22.635Z,3.87
2022-10-08T22:45:26.490Z,2.70
2022-10-08T22:48:30.415Z,2.67
2022-10-08T22:51:35.766Z,3.00
2022-10-08T22:54:39.395Z,2.77
2022-10-08T22:57:42.974Z,2.93
2022-10-08T23:00:46.663Z,3.57
2022-10-08T23:03:51.329Z,2.80
2022-10-08T23:06:56.523Z,2.80
2022-10-08T23:10:00.318Z,3.10
2022-10-08T23:13:04.116Z,2.77
2022-10-08T23:16:10.461Z,2.83
2022-10-08T23:19:14.087Z,2.80
2022-10-08T23:22:18.999Z,3.17
2022-10-08T23:25:22.659Z,3.63
2022-10-08T23:28:27.218Z,3.47
2022-10-08T23:31:33.472Z,3.07
2022-10-08T23:34:37.179Z,3.77
2022-10-08T23:37:42.545Z,2.97
2022-10-08T23:40:46.235Z,3.40
2022-10-08T23:43:52.986Z,3.23
2022-10-08T23:46:56.650Z,3.60
2022-10-08T23:50:00.756Z,3.13
2022-10-08T23:53:06.239Z,3.73
2022-10-08T23:56:10.992Z,3.07
2022-10-08T23:59:14.590Z,4.17
